Time;durP1;ratioP1;P1;durP2;ratioP2;P2;SDS_P1;SDS_P2;PMS_P1;PMS_P2;Temp;Humidity;BMP_temperature;BMP_pressure;BME280_temperature;BME280_humidity;BME280_pressure;Samples;Min_cycle;Max_cycle;Signal;HPM_P1;HPM_P2
2023/06/02 00:01:01;;;;;;;;;;;10.40;99.90;;;;;;5058261;28;20341;-42
2023/06/02 00:03:30;;;;;;;;;;;10.30;99.90;;;;;;5055299;28;19909;-41
2023/06/02 00:05:57;;;;;;;;;;;10.30;99.90;;;;;;5068660;28;19944;-41
2023/06/02 00:08:23;;;;;;;;;;;10.20;99.90;;;;;;5068254;28;19911;-41
2023/06/02 00:10:48;;;;;;;;;;;10.20;99.90;;;;;;5069596;28;20007;-41
2023/06/02 00:13:14;;;;;;;;;;;10.20;99.90;;;;;;5076720;28;20267;-40
2023/06/02 00:15:40;;;;;;;;;;;10.10;99.90;;;;;;5068722;28;20450;-41
2023/06/02 00:18:07;;;;;;;;;;;10.10;99.90;;;;;;5068469;28;19915;-41
2023/06/02 00:20:33;;;;;;;;;;;10.10;99.90;;;;;;5068457;28;19990;-41
2023/06/02 00:23:01;;;;;;;;;;;10.00;99.90;;;;;;5068584;28;20003;-40
2023/06/02 00:25:27;;;;;;;;;;;10.00;99.90;;;;;;5068640;28;19904;-40
2023/06/02 00:27:53;;;;;;;;;;;10.00;99.90;;;;;;5068403;28;20317;-41
2023/06/02 00:30:18;;;;;;;;;;;10.00;99.90;;;;;;5063209;28;19908;-40
2023/06/02 00:32:44;;;;;;;;;;;9.90;99.90;;;;;;5049300;28;19948;-40
2023/06/02 00:35:10;;;;;;;;;;;9.90;99.90;;;;;;5068557;28;20422;-43
2023/06/02 00:37:35;;;;;;;;;;;9.90;99.90;;;;;;5065581;28;20496;-41
2023/06/02 00:40:02;;;;;;;;;;;9.80;99.90;;;;;;5062168;28;19909;-40
2023/06/02 00:42:28;;;;;;;;;;;9.80;99.90;;;;;;5048345;28;19962;-40
2023/06/02 00:44:53;;;;;;;;;;;9.80;99.90;;;;;;5066378;28;20368;-40
2023/06/02 00:47:19;;;;;;;;;;;9.80;99.90;;;;;;5046856;28;19921;-41
2023/06/02 00:49:44;;;;;;;;;;;9.80;99.90;;;;;;5064900;28;20174;-41
2023/06/02 00:52:10;;;;;;;;;;;9.70;99.90;;;;;;5061078;28;20283;-41
2023/06/02 00:54:35;;;;;;;;;;;9.70;99.90;;;;;;5068484;28;19912;-42
2023/06/02 00:57:01;;;;;;;;;;;9.70;99.90;;;;;;5069275;28;20170;-41
2023/06/02 00:59:27;;;;;;;;;;;9.60;99.90;;;;;;5068984;28;19914;-41
2023/06/02 01:01:53;;;;;;;;;;;9.60;99.90;;;;;;5071059;28;20364;-40
2023/06/02 01:04:20;;;;;;;;;;;9.60;99.90;;;;;;5069430;28;19908;-41
2023/06/02 01:06:48;;;;;;;;;;;9.60;99.90;;;;;;5051560;28;19946;-40
2023/06/02 01:09:14;;;;;;;;;;;9.60;99.90;;;;;;5064586;28;19904;-42
2023/06/02 01:11:40;;;;;;;;;;;9.60;99.90;;;;;;5062352;28;19908;-42
2023/06/02 01:14:05;;;;;;;;;;;9.50;99.90;;;;;;5071669;28;20239;-42
2023/06/02 01:16:32;;;;;;;;;;;9.50;99.90;;;;;;5071455;28;20336;-42
2023/06/02 01:18:59;;;;;;;;;;;9.50;99.90;;;;;;5065046;28;19911;-41
2023/06/02 01:21:28;;;;;;;;;;;9.50;99.90;;;;;;5065076;28;20365;-41
2023/06/02 01:23:54;;;;;;;;;;;9.50;99.90;;;;;;5071235;28;20015;-41
2023/06/02 01:26:19;;;;;;;;;;;9.40;99.90;;;;;;5071457;28;20003;-41
2023/06/02 01:28:45;;;;;;;;;;;9.30;99.90;;;;;;5071500;28;19909;-41
2023/06/02 01:31:18;;;;;;;;;;;9.30;99.90;;;;;;5064096;28;20362;-41
2023/06/02 01:33:57;;;;;;;;;;;9.30;99.90;;;;;;5059617;28;19905;-41
2023/06/02 01:36:23;;;;;;;;;;;9.20;99.90;;;;;;5064937;28;20354;-40
2023/06/02 01:38:49;;;;;;;;;;;9.20;99.90;;;;;;5071088;28;20358;-41
2023/06/02 01:41:16;;;;;;;;;;;9.20;99.90;;;;;;5071412;28;19915;-41
2023/06/02 01:43:42;;;;;;;;;;;9.20;99.90;;;;;;5071513;28;20376;-41
2023/06/02 01:46:09;;;;;;;;;;;9.10;99.90;;;;;;5070975;28;19956;-41
2023/06/02 01:48:35;;;;;;;;;;;9.10;99.90;;;;;;5052977;28;20443;-41
2023/06/02 01:51:02;;;;;;;;;;;9.00;99.90;;;;;;5071242;28;19983;-40
2023/06/02 01:53:27;;;;;;;;;;;9.00;99.90;;;;;;5071075;28;20289;-40
2023/06/02 01:55:53;;;;;;;;;;;9.00;99.90;;;;;;5056963;28;19909;-42
2023/06/02 01:58:19;;;;;;;;;;;9.00;99.90;;;;;;5075703;28;19908;-41
2023/06/02 02:00:45;;;;;;;;;;;9.00;99.90;;;;;;5090841;28;19953;-41
2023/06/02 02:03:12;;;;;;;;;;;9.00;99.90;;;;;;5090069;28;19914;-41
2023/06/02 02:05:37;;;;;;;;;;;9.00;99.90;;;;;;5091541;28;20135;-41
2023/06/02 02:08:04;;;;;;;;;;;9.00;99.90;;;;;;5082693;28;20003;-40
2023/06/02 02:10:30;;;;;;;;;;;9.00;99.90;;;;;;5091419;28;19904;-40
2023/06/02 02:12:55;;;;;;;;;;;9.00;99.90;;;;;;5091137;28;19960;-41
2023/06/02 02:15:21;;;;;;;;;;;9.00;99.90;;;;;;5086063;28;19995;-40
2023/06/02 02:17:47;;;;;;;;;;;9.00;99.90;;;;;;5087293;28;19908;-40
2023/06/02 02:20:17;;;;;;;;;;;9.00;99.90;;;;;;5090614;28;19947;-40
2023/06/02 02:22:42;;;;;;;;;;;9.00;99.90;;;;;;5091281;28;19908;-40
2023/06/02 02:25:08;;;;;;;;;;;9.00;99.90;;;;;;5071170;28;20994;-40
2023/06/02 02:27:34;;;;;;;;;;;9.10;99.90;;;;;;5070378;28;19905;-40
2023/06/02 02:30:00;;;;;;;;;;;9.10;99.90;;;;;;5069660;28;19915;-40
2023/06/02 02:32:26;;;;;;;;;;;9.20;99.90;;;;;;5070571;28;19904;-40
2023/06/02 02:34:51;;;;;;;;;;;9.20;99.90;;;;;;5087396;28;19915;-40
2023/06/02 02:37:19;;;;;;;;;;;9.30;99.90;;;;;;5090558;28;19915;-40
2023/06/02 02:39:45;;;;;;;;;;;9.30;99.90;;;;;;5090027;28;20428;-40
2023/06/02 02:42:10;;;;;;;;;;;9.30;99.90;;;;;;5090379;28;20052;-41
2023/06/02 02:44:36;;;;;;;;;;;9.40;99.90;;;;;;5090554;28;19971;-41
2023/06/02 02:47:02;;;;;;;;;;;9.40;99.90;;;;;;5088287;28;19908;-41
2023/06/02 02:49:28;;;;;;;;;;;9.40;99.90;;;;;;5069684;28;19904;-40
2023/06/02 02:51:53;;;;;;;;;;;9.40;99.90;;;;;;5052618;28;19912;-42
2023/06/02 02:54:19;;;;;;;;;;;9.40;99.90;;;;;;5082843;28;19908;-40
2023/06/02 02:56:45;;;;;;;;;;;9.40;99.90;;;;;;5069997;28;19931;-41
2023/06/02 02:59:12;;;;;;;;;;;9.40;99.90;;;;;;5080989;28;19912;-40
2023/06/02 03:01:43;;;;;;;;;;;9.30;99.90;;;;;;5057140;28;19911;-41
2023/06/02 03:04:10;;;;;;;;;;;9.30;99.90;;;;;;5089345;28;20347;-40
2023/06/02 03:06:37;;;;;;;;;;;9.30;99.90;;;;;;5089911;28;20388;-41
2023/06/02 03:09:02;;;;;;;;;;;9.30;99.90;;;;;;5075792;28;19915;-40
2023/06/02 03:11:28;;;;;;;;;;;9.30;99.90;;;;;;5072259;28;19909;-40
2023/06/02 03:13:53;;;;;;;;;;;9.30;99.90;;;;;;5069084;28;20357;-41
2023/06/02 03:16:19;;;;;;;;;;;9.30;99.90;;;;;;5072416;28;19935;-40
2023/06/02 03:18:45;;;;;;;;;;;9.30;99.90;;;;;;5068950;28;19908;-40
2023/06/02 03:21:10;;;;;;;;;;;9.30;99.90;;;;;;5089201;28;19911;-40
2023/06/02 03:23:36;;;;;;;;;;;9.20;99.90;;;;;;5083455;28;20374;-40
2023/06/02 03:26:02;;;;;;;;;;;9.30;99.90;;;;;;5068948;28;20293;-40
2023/06/02 03:28:28;;;;;;;;;;;9.20;99.90;;;;;;5070330;28;20361;-40
2023/06/02 03:30:53;;;;;;;;;;;9.20;99.90;;;;;;5086011;28;19911;-40
2023/06/02 03:33:19;;;;;;;;;;;9.30;99.90;;;;;;5089593;28;20555;-41
2023/06/02 03:35:45;;;;;;;;;;;9.30;99.90;;;;;;5089688;28;19998;-40
2023/06/02 03:38:11;;;;;;;;;;;9.30;99.90;;;;;;5089013;28;19908;-40
2023/06/02 03:40:36;;;;;;;;;;;9.30;99.90;;;;;;5089106;28;19911;-41
2023/06/02 03:43:02;;;;;;;;;;;9.40;99.90;;;;;;5089611;28;20353;-40
2023/06/02 03:45:27;;;;;;;;;;;9.40;99.90;;;;;;5080858;28;20380;-41
2023/06/02 03:47:52;;;;;;;;;;;9.40;99.90;;;;;;5068299;28;19948;-41
2023/06/02 03:50:18;;;;;;;;;;;9.50;99.90;;;;;;5053493;28;20129;-41
2023/06/02 03:52:44;;;;;;;;;;;9.50;99.90;;;;;;5066277;28;19911;-41
2023/06/02 03:55:09;;;;;;;;;;;9.50;99.90;;;;;;5074263;28;20300;-40
2023/06/02 03:57:35;;;;;;;;;;;9.50;99.90;;;;;;5068842;28;19916;-40
2023/06/02 04:00:00;;;;;;;;;;;9.50;99.90;;;;;;5086460;28;20035;-40
2023/06/02 04:02:26;;;;;;;;;;;9.50;99.90;;;;;;5088946;28;19943;-41
2023/06/02 04:04:52;;;;;;;;;;;9.50;99.90;;;;;;5079215;28;19973;-40
2023/06/02 04:07:17;;;;;;;;;;;9.60;99.90;;;;;;5067407;28;20288;-42
2023/06/02 04:09:43;;;;;;;;;;;9.60;99.90;;;;;;5083626;28;19904;-42
2023/06/02 04:12:08;;;;;;;;;;;9.70;99.90;;;;;;5088951;28;19904;-41
2023/06/02 04:14:34;;;;;;;;;;;9.80;99.90;;;;;;5088964;28;19908;-41
2023/06/02 04:16:59;;;;;;;;;;;9.80;99.90;;;;;;5070456;28;20383;-43
2023/06/02 04:19:25;;;;;;;;;;;9.80;99.90;;;;;;5088450;28;19915;-41
2023/06/02 04:21:52;;;;;;;;;;;9.80;99.90;;;;;;5088669;28;19911;-41
2023/06/02 04:24:17;;;;;;;;;;;9.90;99.90;;;;;;5064778;28;20281;-41
2023/06/02 04:26:43;;;;;;;;;;;9.90;99.90;;;;;;5067624;28;19908;-40
2023/06/02 04:29:08;;;;;;;;;;;10.00;99.90;;;;;;5072340;28;20071;-42
2023/06/02 04:31:38;;;;;;;;;;;10.00;99.90;;;;;;5071342;28;19934;-42
2023/06/02 04:34:03;;;;;;;;;;;10.10;99.90;;;;;;5066742;28;19915;-41
2023/06/02 04:36:28;;;;;;;;;;;10.10;99.90;;;;;;5085053;28;19906;-40
2023/06/02 04:38:54;;;;;;;;;;;10.10;99.90;;;;;;5085535;28;19927;-41
2023/06/02 04:41:22;;;;;;;;;;;10.10;99.90;;;;;;5085381;28;19904;-40
2023/06/02 04:43:51;;;;;;;;;;;10.20;99.90;;;;;;5085481;28;19916;-40
2023/06/02 04:46:19;;;;;;;;;;;10.20;99.90;;;;;;5086145;28;20403;-40
2023/06/02 04:48:48;;;;;;;;;;;10.20;99.90;;;;;;5084139;28;19919;-40
2023/06/02 04:51:14;;;;;;;;;;;10.30;99.90;;;;;;5086186;28;20280;-40
2023/06/02 04:53:40;;;;;;;;;;;10.40;99.90;;;;;;5084123;28;19991;-41
2023/06/02 04:56:06;;;;;;;;;;;10.40;99.90;;;;;;5081850;28;19916;-40
2023/06/02 04:58:32;;;;;;;;;;;10.50;99.90;;;;;;5071573;28;19911;-42
2023/06/02 05:00:57;;;;;;;;;;;10.50;99.90;;;;;;5071592;28;20346;-41
2023/06/02 05:03:23;;;;;;;;;;;10.50;99.90;;;;;;5071521;28;19915;-42
2023/06/02 05:05:48;;;;;;;;;;;10.60;99.90;;;;;;5072298;28;19904;-41
2023/06/02 05:08:14;;;;;;;;;;;10.60;99.90;;;;;;5071365;28;19932;-41
2023/06/02 05:10:40;;;;;;;;;;;10.70;99.90;;;;;;5071707;28;19904;-40
2023/06/02 05:13:06;;;;;;;;;;;10.70;99.90;;;;;;5071852;28;19912;-40
2023/06/02 05:15:31;;;;;;;;;;;10.80;99.90;;;;;;5072216;28;19991;-41
2023/06/02 05:17:56;;;;;;;;;;;10.80;99.90;;;;;;5071368;28;19999;-41
2023/06/02 05:20:22;;;;;;;;;;;10.80;99.90;;;;;;5071703;28;19940;-41
2023/06/02 05:22:48;;;;;;;;;;;10.80;99.90;;;;;;5071608;28;19908;-43
2023/06/02 05:25:13;;;;;;;;;;;10.90;99.90;;;;;;5078471;28;19912;-41
2023/06/02 05:27:39;;;;;;;;;;;10.90;99.90;;;;;;5078510;28;20020;-40
2023/06/02 05:30:05;;;;;;;;;;;11.00;99.90;;;;;;5070576;28;20280;-42
2023/06/02 05:32:30;;;;;;;;;;;11.10;99.90;;;;;;5071009;28;19911;-41
2023/06/02 05:34:56;;;;;;;;;;;11.10;99.90;;;;;;5071035;28;20069;-43
2023/06/02 05:37:21;;;;;;;;;;;11.20;99.90;;;;;;5070934;28;19957;-42
2023/06/02 05:39:47;;;;;;;;;;;11.30;99.90;;;;;;5071161;28;19905;-41
2023/06/02 05:42:13;;;;;;;;;;;11.40;99.90;;;;;;5070996;28;19977;-41
2023/06/02 05:44:39;;;;;;;;;;;11.50;99.90;;;;;;5068371;28;19905;-41
2023/06/02 05:47:05;;;;;;;;;;;11.60;99.90;;;;;;5070877;28;20062;-41
2023/06/02 05:49:30;;;;;;;;;;;11.60;99.90;;;;;;5077729;28;19904;-42
2023/06/02 05:51:56;;;;;;;;;;;11.70;99.90;;;;;;5070768;28;20001;-41
2023/06/02 05:54:21;;;;;;;;;;;11.70;99.90;;;;;;5071057;28;19904;-43
2023/06/02 05:56:47;;;;;;;;;;;11.80;99.90;;;;;;5070953;28;19965;-42
2023/06/02 05:59:13;;;;;;;;;;;11.80;99.90;;;;;;5070374;28;20360;-42
2023/06/02 06:01:38;;;;;;;;;;;11.90;99.90;;;;;;5070410;28;19927;-41
2023/06/02 06:04:04;;;;;;;;;;;12.00;99.90;;;;;;5070055;28;19908;-42
2023/06/02 06:06:30;;;;;;;;;;;12.10;99.90;;;;;;5070529;28;19905;-42
2023/06/02 06:08:55;;;;;;;;;;;12.30;99.90;;;;;;5080018;28;20323;-41
2023/06/02 06:11:22;;;;;;;;;;;12.40;99.90;;;;;;5070497;28;20360;-42
2023/06/02 06:13:47;;;;;;;;;;;12.60;99.90;;;;;;5070118;28;19911;-42
2023/06/02 06:16:13;;;;;;;;;;;12.60;99.90;;;;;;5070445;28;20302;-47
2023/06/02 06:18:38;;;;;;;;;;;12.60;99.90;;;;;;5069577;28;19904;-44
2023/06/02 06:21:04;;;;;;;;;;;12.70;99.90;;;;;;5070136;28;19912;-41
2023/06/02 06:23:29;;;;;;;;;;;12.60;99.90;;;;;;5070246;28;20209;-41
2023/06/02 06:25:55;;;;;;;;;;;12.40;99.90;;;;;;5070200;28;20297;-42
2023/06/02 06:28:21;;;;;;;;;;;12.40;99.90;;;;;;5069835;28;19916;-41
2023/06/02 06:30:46;;;;;;;;;;;12.40;99.90;;;;;;5069539;28;19912;-41
2023/06/02 06:33:12;;;;;;;;;;;12.40;99.90;;;;;;5069523;28;19905;-42
2023/06/02 06:35:38;;;;;;;;;;;12.50;99.90;;;;;;5070134;28;19908;-41
2023/06/02 06:38:04;;;;;;;;;;;12.70;99.90;;;;;;5069980;28;20239;-42
2023/06/02 06:40:31;;;;;;;;;;;12.80;99.90;;;;;;5070147;28;19911;-42
2023/06/02 06:42:57;;;;;;;;;;;12.90;99.90;;;;;;5070167;28;20378;-42
2023/06/02 06:45:23;;;;;;;;;;;13.00;99.90;;;;;;5077252;28;19905;-42
2023/06/02 06:47:50;;;;;;;;;;;13.10;99.90;;;;;;5078294;28;19905;-42
2023/06/02 06:50:15;;;;;;;;;;;13.20;99.90;;;;;;5069289;28;19908;-42
2023/06/02 06:52:41;;;;;;;;;;;13.20;99.90;;;;;;5070405;28;20471;-42
2023/06/02 06:55:06;;;;;;;;;;;13.20;99.90;;;;;;5069503;28;19912;-40
2023/06/02 06:57:32;;;;;;;;;;;13.40;99.90;;;;;;5082537;28;19919;-40
2023/06/02 06:59:58;;;;;;;;;;;13.40;99.90;;;;;;5083838;28;19999;-39
2023/06/02 07:02:23;;;;;;;;;;;13.20;99.90;;;;;;5049591;28;19909;-39
2023/06/02 07:04:49;;;;;;;;;;;13.30;99.90;;;;;;5066226;28;19904;-40
2023/06/02 07:07:14;;;;;;;;;;;13.30;99.90;;;;;;5069580;28;20162;-39
2023/06/02 07:09:40;;;;;;;;;;;13.40;99.90;;;;;;5066042;28;20281;-39
2023/06/02 07:12:06;;;;;;;;;;;13.40;99.90;;;;;;5086740;28;19998;-39
2023/06/02 07:14:32;;;;;;;;;;;13.50;99.90;;;;;;5069312;28;19908;-39
2023/06/02 07:16:59;;;;;;;;;;;13.70;99.90;;;;;;5068793;28;19908;-39
2023/06/02 07:19:25;;;;;;;;;;;13.70;99.90;;;;;;5068662;28;19946;-39
2023/06/02 07:21:51;;;;;;;;;;;13.70;99.90;;;;;;5069199;28;19936;-39
2023/06/02 07:24:16;;;;;;;;;;;13.90;99.90;;;;;;5069245;28;19909;-39
2023/06/02 07:26:42;;;;;;;;;;;13.80;99.90;;;;;;5069570;28;19950;-41
2023/06/02 07:29:07;;;;;;;;;;;13.80;99.90;;;;;;5050748;28;19905;-39
2023/06/02 07:31:33;;;;;;;;;;;14.10;99.90;;;;;;5054743;28;19959;-39
2023/06/02 07:33:59;;;;;;;;;;;14.30;99.90;;;;;;5066423;28;20385;-40
2023/06/02 07:36:24;;;;;;;;;;;14.60;99.90;;;;;;5069189;28;19927;-40
2023/06/02 07:38:50;;;;;;;;;;;15.10;99.90;;;;;;5068641;28;20112;-40
2023/06/02 07:41:16;;;;;;;;;;;15.30;99.90;;;;;;5069270;28;19916;-40
2023/06/02 07:43:42;;;;;;;;;;;15.30;99.90;;;;;;5069259;28;19908;-40
2023/06/02 07:46:07;;;;;;;;;;;15.70;99.90;;;;;;5068676;28;19912;-40
2023/06/02 07:48:33;;;;;;;;;;;16.00;99.90;;;;;;5068512;28;20417;-41
2023/06/02 07:50:58;;;;;;;;;;;16.10;99.90;;;;;;5069042;28;19904;-40
2023/06/02 07:53:24;;;;;;;;;;;16.30;99.90;;;;;;5069235;28;19905;-40
2023/06/02 07:55:49;;;;;;;;;;;16.40;99.90;;;;;;5069146;28;19947;-40
2023/06/02 07:58:14;;;;;;;;;;;16.10;99.90;;;;;;5084198;28;20384;-40
2023/06/02 08:00:40;;;;;;;;;;;16.10;99.90;;;;;;5061568;28;20329;-40
2023/06/02 08:03:07;;;;;;;;;;;16.30;99.90;;;;;;5050152;28;19912;-40
2023/06/02 08:05:32;;;;;;;;;;;16.30;99.90;;;;;;5069340;28;19950;-41
2023/06/02 08:07:58;;;;;;;;;;;16.00;99.90;;;;;;5068557;28;19944;-40
2023/06/02 08:10:23;;;;;;;;;;;16.20;99.90;;;;;;5068633;28;19904;-41
2023/06/02 08:12:49;;;;;;;;;;;16.10;99.90;;;;;;5068763;28;19904;-40
2023/06/02 08:15:14;;;;;;;;;;;16.10;99.90;;;;;;5068162;28;19904;-40
2023/06/02 08:17:40;;;;;;;;;;;16.00;99.90;;;;;;5068515;28;19998;-41
2023/06/02 08:20:07;;;;;;;;;;;15.90;99.90;;;;;;5067781;28;20293;-40
2023/06/02 08:22:33;;;;;;;;;;;15.90;99.90;;;;;;5068709;28;19908;-41
2023/06/02 08:25:00;;;;;;;;;;;15.90;99.90;;;;;;5068919;28;19965;-40
2023/06/02 08:27:26;;;;;;;;;;;15.80;99.90;;;;;;5063102;28;19924;-40
2023/06/02 08:29:52;;;;;;;;;;;15.70;99.90;;;;;;5048252;28;19905;-41
2023/06/02 08:32:18;;;;;;;;;;;15.60;99.90;;;;;;5069110;28;20003;-40
2023/06/02 08:34:44;;;;;;;;;;;15.50;99.90;;;;;;5069025;28;20316;-40
2023/06/02 08:37:15;;;;;;;;;;;15.40;99.90;;;;;;5067211;28;19908;-40
2023/06/02 08:39:40;;;;;;;;;;;15.50;99.90;;;;;;5068417;28;19905;-40
2023/06/02 08:42:08;;;;;;;;;;;15.50;99.90;;;;;;5068181;28;20003;-40
2023/06/02 08:44:35;;;;;;;;;;;15.60;99.90;;;;;;5068658;28;20377;-40
2023/06/02 08:47:01;;;;;;;;;;;15.50;99.90;;;;;;5068245;28;19904;-40
2023/06/02 08:49:27;;;;;;;;;;;15.50;99.90;;;;;;5068170;28;19904;-40
2023/06/02 08:51:55;;;;;;;;;;;15.60;99.90;;;;;;5068561;28;20237;-40
2023/06/02 08:54:21;;;;;;;;;;;15.70;99.90;;;;;;5068575;28;19904;-41
2023/06/02 08:56:49;;;;;;;;;;;15.80;99.90;;;;;;5076902;28;19912;-40
2023/06/02 08:59:19;;;;;;;;;;;15.70;99.90;;;;;;5048130;28;20005;-40
2023/06/02 09:01:45;;;;;;;;;;;15.80;99.90;;;;;;5063722;28;19956;-41
2023/06/02 09:04:11;;;;;;;;;;;16.00;99.90;;;;;;5076471;28;20005;-41
2023/06/02 09:06:39;;;;;;;;;;;16.20;99.90;;;;;;5067025;28;19953;-40
2023/06/02 09:09:04;;;;;;;;;;;17.00;99.90;;;;;;5051272;28;19912;-41
2023/06/02 09:11:31;;;;;;;;;;;17.70;99.90;;;;;;5063231;28;19905;-41
2023/06/02 09:13:57;;;;;;;;;;;18.80;98.90;;;;;;5060444;28;19950;-41
2023/06/02 09:16:33;;;;;;;;;;;19.20;97.90;;;;;;5079967;28;19940;-42
2023/06/02 09:18:59;;;;;;;;;;;19.20;97.10;;;;;;5054060;28;19966;-42
2023/06/02 09:21:51;;;;;;;;;;;19.20;97.10;;;;;;5063515;28;19911;-40
2023/06/02 09:24:30;;;;;;;;;;;19.30;97.50;;;;;;5048975;28;20354;-41
2023/06/02 09:26:56;;;;;;;;;;;19.00;96.80;;;;;;5071365;28;19915;-48
2023/06/02 09:29:21;;;;;;;;;;;19.00;96.90;;;;;;5060991;28;20285;-40
2023/06/02 09:31:48;;;;;;;;;;;19.10;97.10;;;;;;5053686;28;19904;-39
2023/06/02 09:34:14;;;;;;;;;;;18.90;96.80;;;;;;5071557;28;20075;-39
2023/06/02 09:36:40;;;;;;;;;;;18.60;97.40;;;;;;5057168;28;19912;-39
2023/06/02 09:39:07;;;;;;;;;;;18.30;98.00;;;;;;5070948;28;19915;-39
2023/06/02 09:41:32;;;;;;;;;;;18.30;97.40;;;;;;5053407;28;19911;-39
2023/06/02 09:43:59;;;;;;;;;;;18.20;98.00;;;;;;5071384;28;20092;-39
2023/06/02 09:46:24;;;;;;;;;;;18.20;97.20;;;;;;5071176;28;20424;-40
2023/06/02 09:48:53;;;;;;;;;;;18.00;97.30;;;;;;5070166;28;19931;-39
2023/06/02 09:51:21;;;;;;;;;;;18.00;98.50;;;;;;5070721;28;19915;-39
2023/06/02 09:53:46;;;;;;;;;;;18.20;98.40;;;;;;5070872;28;19911;-39
2023/06/02 09:56:12;;;;;;;;;;;18.20;97.80;;;;;;5077845;28;19912;-39
2023/06/02 09:58:37;;;;;;;;;;;18.30;97.60;;;;;;5056318;28;19904;-39
2023/06/02 10:01:03;;;;;;;;;;;18.50;98.00;;;;;;5060526;28;19905;-39
2023/06/02 10:03:29;;;;;;;;;;;18.30;96.80;;;;;;5083097;28;19915;-39
2023/06/02 10:06:05;;;;;;;;;;;18.30;97.20;;;;;;5090003;28;19904;-42
2023/06/02 10:08:34;;;;;;;;;;;18.10;97.70;;;;;;5086015;28;19904;-40
2023/06/02 10:11:09;;;;;;;;;;;18.00;98.10;;;;;;5070711;28;19914;-39
2023/06/02 10:13:58;;;;;;;;;;;18.00;98.50;;;;;;5071001;28;20350;-39
2023/06/02 10:16:29;;;;;;;;;;;17.70;98.50;;;;;;5071598;28;19904;-39
2023/06/02 10:19:09;;;;;;;;;;;17.40;99.00;;;;;;5070062;28;19904;-39
2023/06/02 10:21:50;;;;;;;;;;;17.20;98.80;;;;;;5075488;28;20085;-39
2023/06/02 10:24:28;;;;;;;;;;;16.90;99.40;;;;;;5085636;28;20319;-39
2023/06/02 10:27:06;;;;;;;;;;;17.00;99.80;;;;;;5079048;28;20332;-39
2023/06/02 10:29:33;;;;;;;;;;;17.00;99.90;;;;;;5056705;28;19904;-39
2023/06/02 10:31:59;;;;;;;;;;;18.40;99.80;;;;;;5050930;28;19932;-39
2023/06/02 10:34:34;;;;;;;;;;;20.80;96.20;;;;;;5062965;28;19939;-39
2023/06/02 10:36:59;;;;;;;;;;;22.20;91.90;;;;;;5070287;28;19955;-40
2023/06/02 10:39:54;;;;;;;;;;;23.00;87.40;;;;;;5069982;28;20484;-39
2023/06/02 10:42:24;;;;;;;;;;;23.50;86.60;;;;;;5044745;28;19905;-41
2023/06/02 10:44:51;;;;;;;;;;;25.70;82.70;;;;;;5070393;28;19904;-42
2023/06/02 10:47:17;;;;;;;;;;;27.20;76.00;;;;;;5070000;28;19992;-41
2023/06/02 10:49:59;;;;;;;;;;;28.50;68.10;;;;;;5069933;28;19931;-41
2023/06/02 10:52:32;;;;;;;;;;;29.00;66.10;;;;;;5074313;28;20273;-42
2023/06/02 10:55:06;;;;;;;;;;;28.50;63.50;;;;;;5072637;28;20315;-41
2023/06/02 10:57:48;;;;;;;;;;;27.10;64.20;;;;;;5064690;28;19920;-42
2023/06/02 11:00:39;;;;;;;;;;;26.10;65.40;;;;;;5057475;28;20280;-41
2023/06/02 11:03:25;;;;;;;;;;;24.50;68.40;;;;;;5054432;28;20066;-41
2023/06/02 11:06:11;;;;;;;;;;;23.20;70.40;;;;;;5070246;28;19904;-40
2023/06/02 11:08:37;;;;;;;;;;;21.80;73.70;;;;;;5070058;28;20363;-40
2023/06/02 11:11:02;;;;;;;;;;;21.10;77.10;;;;;;5068662;28;20003;-41
2023/06/02 11:13:28;;;;;;;;;;;20.90;78.90;;;;;;5069543;28;19947;-41
2023/06/02 11:15:53;;;;;;;;;;;20.80;80.40;;;;;;5069237;28;19915;-41
2023/06/02 11:18:27;;;;;;;;;;;21.00;79.50;;;;;;5070744;28;20480;-41
2023/06/02 11:20:53;;;;;;;;;;;22.50;77.90;;;;;;5065071;28;19904;-41
2023/06/02 11:23:19;;;;;;;;;;;24.30;74.30;;;;;;5068932;28;19938;-41
2023/06/02 11:25:45;;;;;;;;;;;26.00;70.60;;;;;;5077906;28;20099;-42
2023/06/02 11:28:22;;;;;;;;;;;27.60;67.10;;;;;;5066283;28;20028;-41
2023/06/02 11:30:49;;;;;;;;;;;28.50;64.70;;;;;;5065828;28;19916;-42
2023/06/02 11:33:15;;;;;;;;;;;28.00;63.50;;;;;;5068809;28;20196;-41
2023/06/02 11:35:40;;;;;;;;;;;26.40;64.50;;;;;;5067488;28;19912;-42
2023/06/02 11:38:08;;;;;;;;;;;25.40;65.90;;;;;;5062396;28;19911;-43
2023/06/02 11:40:34;;;;;;;;;;;24.50;67.90;;;;;;5068609;28;20212;-41
2023/06/02 11:43:00;;;;;;;;;;;23.60;70.80;;;;;;5071090;28;20014;-42
2023/06/02 11:45:26;;;;;;;;;;;24.50;71.00;;;;;;5069231;28;20061;-42
2023/06/02 11:48:11;;;;;;;;;;;25.30;70.30;;;;;;5069621;28;19974;-42
2023/06/02 11:50:37;;;;;;;;;;;25.60;68.40;;;;;;5061113;28;19904;-42
2023/06/02 11:53:03;;;;;;;;;;;25.70;65.90;;;;;;5068919;28;20261;-42
2023/06/02 11:55:29;;;;;;;;;;;25.30;66.30;;;;;;5073499;28;19911;-41
2023/06/02 11:58:13;;;;;;;;;;;25.00;68.10;;;;;;5072098;28;19919;-41
2023/06/02 12:00:39;;;;;;;;;;;24.70;67.20;;;;;;5053683;28;20061;-41
2023/06/02 12:03:08;;;;;;;;;;;24.40;67.00;;;;;;5068718;28;20029;-43
2023/06/02 12:05:34;;;;;;;;;;;24.00;68.30;;;;;;5068849;28;19904;-41
2023/06/02 12:08:07;;;;;;;;;;;23.70;67.10;;;;;;5068193;28;19904;-41
2023/06/02 12:10:32;;;;;;;;;;;23.40;68.50;;;;;;5064315;28;20033;-41
2023/06/02 12:12:58;;;;;;;;;;;23.20;70.50;;;;;;5066526;28;19905;-42
2023/06/02 12:15:31;;;;;;;;;;;23.40;69.80;;;;;;5068995;28;20382;-41
2023/06/02 12:17:56;;;;;;;;;;;23.40;71.10;;;;;;5066009;28;19904;-43
2023/06/02 12:20:32;;;;;;;;;;;23.10;70.20;;;;;;5068218;28;19911;-41
2023/06/02 12:22:58;;;;;;;;;;;23.20;71.30;;;;;;5065438;28;19909;-41
2023/06/02 12:25:23;;;;;;;;;;;23.60;70.10;;;;;;5062968;28;20518;-41
2023/06/02 12:27:49;;;;;;;;;;;23.50;69.10;;;;;;5068189;28;20436;-43
2023/06/02 12:30:15;;;;;;;;;;;23.20;69.40;;;;;;5061826;28;20107;-41
2023/06/02 12:32:41;;;;;;;;;;;22.90;70.70;;;;;;5067951;28;20290;-43
2023/06/02 12:35:07;;;;;;;;;;;22.80;70.30;;;;;;5068343;28;20003;-41
2023/06/02 12:37:32;;;;;;;;;;;22.30;72.40;;;;;;5066289;28;20322;-41
2023/06/02 12:39:58;;;;;;;;;;;22.30;73.00;;;;;;5065081;28;20285;-41
2023/06/02 12:42:23;;;;;;;;;;;22.40;73.70;;;;;;5064752;28;19911;-42
2023/06/02 12:44:49;;;;;;;;;;;22.20;74.70;;;;;;5068420;28;19912;-43
2023/06/02 12:47:15;;;;;;;;;;;22.10;73.90;;;;;;5069077;28;20033;-42
2023/06/02 12:49:40;;;;;;;;;;;22.00;74.60;;;;;;5071648;28;19911;-42
2023/06/02 12:52:06;;;;;;;;;;;21.90;73.60;;;;;;5068273;28;20255;-41
2023/06/02 12:54:32;;;;;;;;;;;22.00;73.50;;;;;;5079103;28;20266;-45
2023/06/02 12:56:57;;;;;;;;;;;21.90;75.00;;;;;;5076736;28;19923;-41
2023/06/02 12:59:23;;;;;;;;;;;22.10;74.00;;;;;;5077927;28;19946;-42
2023/06/02 13:01:48;;;;;;;;;;;22.90;76.10;;;;;;5063535;28;19912;-42
2023/06/02 13:04:14;;;;;;;;;;;23.60;73.10;;;;;;5081680;28;19908;-43
2023/06/02 13:06:40;;;;;;;;;;;23.50;72.10;;;;;;5080892;28;19905;-42
2023/06/02 13:09:05;;;;;;;;;;;23.00;71.90;;;;;;5078985;28;20294;-41
2023/06/02 13:11:31;;;;;;;;;;;22.90;71.20;;;;;;5077276;28;20254;-41
2023/06/02 13:13:58;;;;;;;;;;;22.60;70.50;;;;;;5062391;28;19915;-41
2023/06/02 13:16:25;;;;;;;;;;;23.00;71.10;;;;;;5084723;28;19904;-43
2023/06/02 13:18:50;;;;;;;;;;;22.80;71.10;;;;;;5078963;28;19944;-42
2023/06/02 13:21:16;;;;;;;;;;;22.60;69.80;;;;;;5075764;28;20362;-44
2023/06/02 13:23:50;;;;;;;;;;;22.40;68.20;;;;;;5081671;28;19954;-43
2023/06/02 13:26:15;;;;;;;;;;;22.00;67.20;;;;;;5082813;28;19913;-42
2023/06/02 13:28:41;;;;;;;;;;;21.80;69.30;;;;;;5078808;28;19904;-43
2023/06/02 13:31:07;;;;;;;;;;;22.10;69.40;;;;;;5076508;28;19908;-44
2023/06/02 13:33:33;;;;;;;;;;;22.50;69.80;;;;;;5081636;28;20022;-43
2023/06/02 13:35:59;;;;;;;;;;;23.10;67.40;;;;;;5080347;28;19911;-45
2023/06/02 13:38:24;;;;;;;;;;;23.60;68.30;;;;;;5056474;28;19904;-42
2023/06/02 13:40:50;;;;;;;;;;;23.90;66.60;;;;;;5081933;28;20427;-41
2023/06/02 13:43:16;;;;;;;;;;;24.50;65.90;;;;;;5076615;28;19951;-42
2023/06/02 13:45:41;;;;;;;;;;;24.20;65.10;;;;;;5062092;28;20003;-43
2023/06/02 13:48:08;;;;;;;;;;;24.70;64.90;;;;;;5083059;28;19966;-42
2023/06/02 13:50:33;;;;;;;;;;;24.90;64.10;;;;;;5082869;28;19904;-42
2023/06/02 13:52:59;;;;;;;;;;;24.60;63.10;;;;;;5080948;28;20285;-43
2023/06/02 13:55:26;;;;;;;;;;;24.00;63.90;;;;;;5080601;28;19954;-42
2023/06/02 13:57:51;;;;;;;;;;;23.50;63.90;;;;;;5071152;28;19951;-42
2023/06/02 14:00:17;;;;;;;;;;;23.10;64.30;;;;;;5070497;28;19940;-43
2023/06/02 14:02:43;;;;;;;;;;;22.70;65.30;;;;;;5070479;28;19921;-41
2023/06/02 14:05:08;;;;;;;;;;;22.00;66.90;;;;;;5075947;28;19912;-42
2023/06/02 14:07:34;;;;;;;;;;;21.70;68.60;;;;;;5085743;28;19995;-42
2023/06/02 14:09:59;;;;;;;;;;;21.50;68.10;;;;;;5070001;28;19908;-42
2023/06/02 14:12:25;;;;;;;;;;;21.30;69.10;;;;;;5070540;28;20054;-41
2023/06/02 14:14:50;;;;;;;;;;;21.20;69.50;;;;;;5086995;28;19904;-43
2023/06/02 14:17:16;;;;;;;;;;;20.90;71.30;;;;;;5090648;28;19904;-41
2023/06/02 14:19:41;;;;;;;;;;;21.00;71.10;;;;;;5090699;28;19904;-42